sensor_id;sensor_type;location;lat;lon;timestamp;P1;durP1;ratioP1;P2;durP2;ratioP2
23565;SDS011;22140;48.988;8.544;2022-09-12T00:01:58;10.77;;;5.47;;
23565;SDS011;22140;48.988;8.544;2022-09-12T00:06:59;13.17;;;5.03;;
23565;SDS011;22140;48.988;8.544;2022-09-12T00:12:00;9.57;;;4.93;;
23565;SDS011;22140;48.988;8.544;2022-09-12T00:17:02;10.63;;;4.63;;
23565;SDS011;22140;48.988;8.544;2022-09-12T00:22:03;11.13;;;4.97;;
23565;SDS011;22140;48.988;8.544;2022-09-12T00:27:04;9.57;;;4.85;;
23565;SDS011;22140;48.988;8.544;2022-09-12T00:32:05;13.00;;;4.40;;
23565;SDS011;22140;48.988;8.544;2022-09-12T00:37:07;11.10;;;4.37;;
23565;SDS011;22140;48.988;8.544;2022-09-12T00:42:08;11.13;;;5.15;;
23565;SDS011;22140;48.988;8.544;2022-09-12T00:47:13;10.50;;;4.63;;
23565;SDS011;22140;48.988;8.544;2022-09-12T00:57:22;13.82;;;5.38;;
23565;SDS011;22140;48.988;8.544;2022-09-12T01:02:27;10.63;;;4.80;;
23565;SDS011;22140;48.988;8.544;2022-09-12T01:07:29;13.27;;;5.30;;
23565;SDS011;22140;48.988;8.544;2022-09-12T01:12:30;10.20;;;4.50;;
23565;SDS011;22140;48.988;8.544;2022-09-12T01:17:39;13.10;;;5.43;;
23565;SDS011;22140;48.988;8.544;2022-09-12T01:38:24;10.23;;;5.40;;
23565;SDS011;22140;48.988;8.544;2022-09-12T01:48:32;11.15;;;5.32;;
23565;SDS011;22140;48.988;8.544;2022-09-12T01:53:47;16.33;;;5.30;;
23565;SDS011;22140;48.988;8.544;2022-09-12T01:58:49;14.68;;;5.07;;
23565;SDS011;22140;48.988;8.544;2022-09-12T02:09:14;11.27;;;5.37;;
23565;SDS011;22140;48.988;8.544;2022-09-12T02:14:22;11.10;;;5.32;;
23565;SDS011;22140;48.988;8.544;2022-09-12T02:19:26;10.77;;;5.33;;
23565;SDS011;22140;48.988;8.544;2022-09-12T02:24:29;11.40;;;5.07;;
23565;SDS011;22140;48.988;8.544;2022-09-12T02:29:32;11.20;;;5.10;;
23565;SDS011;22140;48.988;8.544;2022-09-12T02:39:34;10.17;;;5.03;;
23565;SDS011;22140;48.988;8.544;2022-09-12T02:44:36;10.30;;;5.20;;
23565;SDS011;22140;48.988;8.544;2022-09-12T02:49:37;10.43;;;5.00;;
23565;SDS011;22140;48.988;8.544;2022-09-12T02:54:39;9.87;;;4.80;;
23565;SDS011;22140;48.988;8.544;2022-09-12T02:59:40;10.45;;;4.88;;
23565;SDS011;22140;48.988;8.544;2022-09-12T03:15:11;10.63;;;5.20;;
23565;SDS011;22140;48.988;8.544;2022-09-12T03:30:38;12.93;;;5.10;;
23565;SDS011;22140;48.988;8.544;2022-09-12T03:35:40;14.27;;;4.97;;
23565;SDS011;22140;48.988;8.544;2022-09-12T03:40:42;12.00;;;5.13;;
23565;SDS011;22140;48.988;8.544;2022-09-12T03:45:43;20.65;;;5.32;;
23565;SDS011;22140;48.988;8.544;2022-09-12T03:50:44;15.07;;;5.37;;
23565;SDS011;22140;48.988;8.544;2022-09-12T03:55:46;13.10;;;5.23;;
23565;SDS011;22140;48.988;8.544;2022-09-12T04:00:47;13.30;;;5.75;;
23565;SDS011;22140;48.988;8.544;2022-09-12T04:05:48;23.80;;;5.57;;
23565;SDS011;22140;48.988;8.544;2022-09-12T04:10:50;11.60;;;5.27;;
23565;SDS011;22140;48.988;8.544;2022-09-12T04:15:55;15.20;;;5.60;;
23565;SDS011;22140;48.988;8.544;2022-09-12T04:20:56;11.77;;;5.20;;
23565;SDS011;22140;48.988;8.544;2022-09-12T04:25:58;11.93;;;5.17;;
23565;SDS011;22140;48.988;8.544;2022-09-12T04:31:01;12.82;;;5.82;;
23565;SDS011;22140;48.988;8.544;2022-09-12T04:36:05;15.03;;;6.00;;
23565;SDS011;22140;48.988;8.544;2022-09-12T04:46:17;14.43;;;5.50;;
23565;SDS011;22140;48.988;8.544;2022-09-12T04:51:26;11.90;;;5.30;;
23565;SDS011;22140;48.988;8.544;2022-09-12T04:56:28;13.77;;;5.40;;
23565;SDS011;22140;48.988;8.544;2022-09-12T05:01:30;14.55;;;5.80;;
23565;SDS011;22140;48.988;8.544;2022-09-12T05:06:33;14.73;;;5.53;;
23565;SDS011;22140;48.988;8.544;2022-09-12T05:11:35;16.10;;;6.15;;
23565;SDS011;22140;48.988;8.544;2022-09-12T05:16:57;13.10;;;5.67;;
23565;SDS011;22140;48.988;8.544;2022-09-12T05:22:00;19.90;;;6.40;;
23565;SDS011;22140;48.988;8.544;2022-09-12T05:27:02;18.73;;;5.93;;
23565;SDS011;22140;48.988;8.544;2022-09-12T05:32:04;15.57;;;5.90;;
23565;SDS011;22140;48.988;8.544;2022-09-12T05:37:06;10.93;;;5.37;;
23565;SDS011;22140;48.988;8.544;2022-09-12T05:42:07;15.57;;;5.53;;
23565;SDS011;22140;48.988;8.544;2022-09-12T05:47:10;16.13;;;5.70;;
23565;SDS011;22140;48.988;8.544;2022-09-12T05:52:11;17.37;;;6.33;;
23565;SDS011;22140;48.988;8.544;2022-09-12T05:57:12;16.15;;;6.45;;
23565;SDS011;22140;48.988;8.544;2022-09-12T06:02:14;20.07;;;7.47;;
23565;SDS011;22140;48.988;8.544;2022-09-12T06:07:16;15.50;;;6.77;;
23565;SDS011;22140;48.988;8.544;2022-09-12T06:12:17;21.70;;;8.95;;
23565;SDS011;22140;48.988;8.544;2022-09-12T06:17:18;22.27;;;10.27;;
23565;SDS011;22140;48.988;8.544;2022-09-12T06:22:20;15.47;;;7.20;;
23565;SDS011;22140;48.988;8.544;2022-09-12T06:27:21;16.55;;;7.03;;
23565;SDS011;22140;48.988;8.544;2022-09-12T06:32:22;16.57;;;7.67;;
23565;SDS011;22140;48.988;8.544;2022-09-12T06:37:23;17.73;;;7.00;;
23565;SDS011;22140;48.988;8.544;2022-09-12T06:42:25;15.10;;;7.18;;
23565;SDS011;22140;48.988;8.544;2022-09-12T06:47:26;13.10;;;6.87;;
23565;SDS011;22140;48.988;8.544;2022-09-12T06:52:28;13.77;;;5.93;;
23565;SDS011;22140;48.988;8.544;2022-09-12T06:57:29;10.48;;;5.32;;
23565;SDS011;22140;48.988;8.544;2022-09-12T07:02:31;31.40;;;6.88;;
23565;SDS011;22140;48.988;8.544;2022-09-12T07:07:32;12.03;;;5.57;;
23565;SDS011;22140;48.988;8.544;2022-09-12T07:12:35;11.93;;;5.10;;
23565;SDS011;22140;48.988;8.544;2022-09-12T07:17:37;20.30;;;6.03;;
23565;SDS011;22140;48.988;8.544;2022-09-12T07:22:38;9.63;;;4.63;;
23565;SDS011;22140;48.988;8.544;2022-09-12T07:27:39;10.00;;;4.35;;
23565;SDS011;22140;48.988;8.544;2022-09-12T07:32:41;70.55;;;8.25;;
23565;SDS011;22140;48.988;8.544;2022-09-12T07:37:42;14.43;;;4.90;;
23565;SDS011;22140;48.988;8.544;2022-09-12T07:42:43;16.15;;;3.97;;
23565;SDS011;22140;48.988;8.544;2022-09-12T07:47:45;19.52;;;4.47;;
23565;SDS011;22140;48.988;8.544;2022-09-12T07:52:46;14.63;;;4.60;;
23565;SDS011;22140;48.988;8.544;2022-09-12T07:57:48;12.33;;;4.27;;
23565;SDS011;22140;48.988;8.544;2022-09-12T08:02:50;20.95;;;4.65;;
23565;SDS011;22140;48.988;8.544;2022-09-12T08:07:52;17.30;;;3.92;;
23565;SDS011;22140;48.988;8.544;2022-09-12T08:12:57;66.97;;;6.83;;
23565;SDS011;22140;48.988;8.544;2022-09-12T08:17:59;10.95;;;3.65;;
23565;SDS011;22140;48.988;8.544;2022-09-12T08:23:00;10.10;;;3.70;;
23565;SDS011;22140;48.988;8.544;2022-09-12T08:28:01;6.97;;;3.23;;
23565;SDS011;22140;48.988;8.544;2022-09-12T08:33:03;8.60;;;3.50;;
23565;SDS011;22140;48.988;8.544;2022-09-12T08:38:04;14.68;;;3.78;;
23565;SDS011;22140;48.988;8.544;2022-09-12T08:48:14;9.17;;;3.70;;
23565;SDS011;22140;48.988;8.544;2022-09-12T08:53:17;13.27;;;3.75;;
23565;SDS011;22140;48.988;8.544;2022-09-12T08:58:19;8.77;;;3.80;;
23565;SDS011;22140;48.988;8.544;2022-09-12T09:03:26;14.13;;;3.40;;
23565;SDS011;22140;48.988;8.544;2022-09-12T09:08:34;7.93;;;3.58;;
23565;SDS011;22140;48.988;8.544;2022-09-12T09:19:10;7.73;;;3.40;;
23565;SDS011;22140;48.988;8.544;2022-09-12T09:24:13;14.98;;;3.92;;
23565;SDS011;22140;48.988;8.544;2022-09-12T09:29:17;8.05;;;3.40;;
23565;SDS011;22140;48.988;8.544;2022-09-12T09:34:23;7.93;;;3.10;;
23565;SDS011;22140;48.988;8.544;2022-09-12T09:44:29;10.60;;;3.13;;
23565;SDS011;22140;48.988;8.544;2022-09-12T09:49:32;8.43;;;3.00;;
23565;SDS011;22140;48.988;8.544;2022-09-12T09:59:35;11.73;;;3.10;;
23565;SDS011;22140;48.988;8.544;2022-09-12T10:04:40;8.57;;;3.55;;
23565;SDS011;22140;48.988;8.544;2022-09-12T10:10:03;12.13;;;3.40;;
23565;SDS011;22140;48.988;8.544;2022-09-12T10:15:24;14.65;;;3.58;;
23565;SDS011;22140;48.988;8.544;2022-09-12T10:20:44;11.57;;;3.40;;
23565;SDS011;22140;48.988;8.544;2022-09-12T10:25:46;9.13;;;3.53;;
23565;SDS011;22140;48.988;8.544;2022-09-12T10:30:51;9.77;;;3.00;;
23565;SDS011;22140;48.988;8.544;2022-09-12T10:35:53;5.40;;;2.45;;
23565;SDS011;22140;48.988;8.544;2022-09-12T10:40:56;5.85;;;2.65;;
23565;SDS011;22140;48.988;8.544;2022-09-12T11:12:47;15.32;;;3.20;;
23565;SDS011;22140;48.988;8.544;2022-09-12T11:28:37;6.22;;;2.30;;
23565;SDS011;22140;48.988;8.544;2022-09-12T11:33:50;5.90;;;2.33;;
23565;SDS011;22140;48.988;8.544;2022-09-12T11:39:13;5.60;;;2.20;;
23565;SDS011;22140;48.988;8.544;2022-09-12T11:54:43;14.13;;;2.90;;
23565;SDS011;22140;48.988;8.544;2022-09-12T11:59:52;4.90;;;1.80;;
23565;SDS011;22140;48.988;8.544;2022-09-12T12:10:04;45.60;;;4.57;;
23565;SDS011;22140;48.988;8.544;2022-09-12T12:15:06;6.00;;;1.90;;
23565;SDS011;22140;48.988;8.544;2022-09-12T12:20:14;7.50;;;1.95;;
23565;SDS011;22140;48.988;8.544;2022-09-12T12:35:40;5.55;;;1.70;;
23565;SDS011;22140;48.988;8.544;2022-09-12T12:40:42;5.15;;;1.77;;
23565;SDS011;22140;48.988;8.544;2022-09-12T12:45:45;7.93;;;1.70;;
23565;SDS011;22140;48.988;8.544;2022-09-12T12:50:46;6.38;;;1.88;;
23565;SDS011;22140;48.988;8.544;2022-09-12T12:55:51;4.50;;;1.60;;
23565;SDS011;22140;48.988;8.544;2022-09-12T13:11:45;5.93;;;1.80;;
23565;SDS011;22140;48.988;8.544;2022-09-12T13:16:57;6.18;;;1.90;;
23565;SDS011;22140;48.988;8.544;2022-09-12T13:22:00;5.77;;;1.70;;
23565;SDS011;22140;48.988;8.544;2022-09-12T13:27:02;4.30;;;1.50;;
23565;SDS011;22140;48.988;8.544;2022-09-12T13:32:04;6.20;;;1.50;;
23565;SDS011;22140;48.988;8.544;2022-09-12T13:37:22;5.33;;;1.40;;
23565;SDS011;22140;48.988;8.544;2022-09-12T13:42:28;8.85;;;1.60;;
23565;SDS011;22140;48.988;8.544;2022-09-12T13:47:37;4.55;;;1.63;;
23565;SDS011;22140;48.988;8.544;2022-09-12T13:52:39;5.00;;;1.57;;
23565;SDS011;22140;48.988;8.544;2022-09-12T13:57:40;10.23;;;1.83;;
23565;SDS011;22140;48.988;8.544;2022-09-12T14:02:42;5.30;;;1.50;;
23565;SDS011;22140;48.988;8.544;2022-09-12T14:07:50;8.55;;;1.92;;
23565;SDS011;22140;48.988;8.544;2022-09-12T14:12:53;10.27;;;2.00;;
23565;SDS011;22140;48.988;8.544;2022-09-12T14:17:58;19.25;;;2.40;;
23565;SDS011;22140;48.988;8.544;2022-09-12T14:23:14;23.90;;;2.88;;
23565;SDS011;22140;48.988;8.544;2022-09-12T14:28:18;6.37;;;1.60;;
23565;SDS011;22140;48.988;8.544;2022-09-12T14:33:23;7.78;;;1.92;;
23565;SDS011;22140;48.988;8.544;2022-09-12T14:38:29;5.60;;;1.50;;
23565;SDS011;22140;48.988;8.544;2022-09-12T14:43:36;5.30;;;1.60;;
23565;SDS011;22140;48.988;8.544;2022-09-12T14:48:41;10.53;;;1.60;;
23565;SDS011;22140;48.988;8.544;2022-09-12T14:53:46;10.43;;;1.75;;
23565;SDS011;22140;48.988;8.544;2022-09-12T14:58:48;7.03;;;1.50;;
23565;SDS011;22140;48.988;8.544;2022-09-12T15:03:50;11.07;;;2.20;;
23565;SDS011;22140;48.988;8.544;2022-09-12T15:08:54;5.65;;;1.65;;
23565;SDS011;22140;48.988;8.544;2022-09-12T15:13:55;24.27;;;2.53;;
23565;SDS011;22140;48.988;8.544;2022-09-12T15:18:56;9.23;;;1.97;;
23565;SDS011;22140;48.988;8.544;2022-09-12T15:23:58;7.03;;;1.70;;
23565;SDS011;22140;48.988;8.544;2022-09-12T15:28:59;4.22;;;1.30;;
23565;SDS011;22140;48.988;8.544;2022-09-12T15:34:01;7.17;;;1.60;;
23565;SDS011;22140;48.988;8.544;2022-09-12T15:39:02;6.33;;;1.93;;
23565;SDS011;22140;48.988;8.544;2022-09-12T15:44:04;7.43;;;1.80;;
23565;SDS011;22140;48.988;8.544;2022-09-12T15:49:05;4.40;;;1.50;;
23565;SDS011;22140;48.988;8.544;2022-09-12T15:54:11;6.17;;;1.87;;
23565;SDS011;22140;48.988;8.544;2022-09-12T15:59:14;6.50;;;1.70;;
23565;SDS011;22140;48.988;8.544;2022-09-12T16:04:18;9.57;;;1.85;;
23565;SDS011;22140;48.988;8.544;2022-09-12T16:09:21;30.50;;;2.97;;
23565;SDS011;22140;48.988;8.544;2022-09-12T16:14:23;7.20;;;1.50;;
23565;SDS011;22140;48.988;8.544;2022-09-12T16:19:25;10.38;;;2.15;;
23565;SDS011;22140;48.988;8.544;2022-09-12T16:24:26;13.40;;;2.23;;
23565;SDS011;22140;48.988;8.544;2022-09-12T16:29:28;5.10;;;1.70;;
23565;SDS011;22140;48.988;8.544;2022-09-12T16:34:31;5.50;;;1.90;;
23565;SDS011;22140;48.988;8.544;2022-09-12T16:39:33;19.95;;;2.53;;
23565;SDS011;22140;48.988;8.544;2022-09-12T16:44:34;12.07;;;2.30;;
23565;SDS011;22140;48.988;8.544;2022-09-12T16:49:36;11.35;;;1.98;;
23565;SDS011;22140;48.988;8.544;2022-09-12T16:54:37;10.60;;;2.20;;
23565;SDS011;22140;48.988;8.544;2022-09-12T16:59:38;17.97;;;3.20;;
23565;SDS011;22140;48.988;8.544;2022-09-12T17:04:40;13.77;;;2.10;;
23565;SDS011;22140;48.988;8.544;2022-09-12T17:09:41;20.85;;;3.47;;
23565;SDS011;22140;48.988;8.544;2022-09-12T17:14:48;13.70;;;2.20;;
23565;SDS011;22140;48.988;8.544;2022-09-12T17:19:49;15.17;;;2.27;;
23565;SDS011;22140;48.988;8.544;2022-09-12T17:25:07;7.50;;;2.45;;
23565;SDS011;22140;48.988;8.544;2022-09-12T17:30:09;7.32;;;2.00;;
23565;SDS011;22140;48.988;8.544;2022-09-12T17:35:13;19.33;;;2.40;;
23565;SDS011;22140;48.988;8.544;2022-09-12T17:40:15;12.63;;;2.45;;
23565;SDS011;22140;48.988;8.544;2022-09-12T17:45:17;14.55;;;2.30;;
23565;SDS011;22140;48.988;8.544;2022-09-12T17:50:19;14.00;;;2.47;;
23565;SDS011;22140;48.988;8.544;2022-09-12T17:55:38;10.93;;;3.20;;
23565;SDS011;22140;48.988;8.544;2022-09-12T18:00:41;11.35;;;2.58;;
23565;SDS011;22140;48.988;8.544;2022-09-12T18:06:01;21.83;;;2.80;;
23565;SDS011;22140;48.988;8.544;2022-09-12T18:11:03;13.90;;;3.10;;
23565;SDS011;22140;48.988;8.544;2022-09-12T18:16:05;7.07;;;2.00;;
23565;SDS011;22140;48.988;8.544;2022-09-12T18:21:07;9.63;;;2.27;;
23565;SDS011;22140;48.988;8.544;2022-09-12T18:26:10;12.07;;;2.43;;
23565;SDS011;22140;48.988;8.544;2022-09-12T18:31:18;15.88;;;2.63;;
23565;SDS011;22140;48.988;8.544;2022-09-12T18:36:19;14.25;;;3.92;;
23565;SDS011;22140;48.988;8.544;2022-09-12T18:41:21;6.70;;;1.90;;
23565;SDS011;22140;48.988;8.544;2022-09-12T18:46:23;5.78;;;2.20;;
23565;SDS011;22140;48.988;8.544;2022-09-12T18:51:25;6.40;;;2.28;;
23565;SDS011;22140;48.988;8.544;2022-09-12T18:56:32;15.03;;;2.40;;
23565;SDS011;22140;48.988;8.544;2022-09-12T19:01:35;18.90;;;4.25;;
23565;SDS011;22140;48.988;8.544;2022-09-12T19:06:38;8.95;;;2.40;;
23565;SDS011;22140;48.988;8.544;2022-09-12T19:11:40;10.97;;;2.27;;
23565;SDS011;22140;48.988;8.544;2022-09-12T19:16:48;10.57;;;2.50;;
23565;SDS011;22140;48.988;8.544;2022-09-12T19:21:50;6.82;;;2.55;;
23565;SDS011;22140;48.988;8.544;2022-09-12T19:26:52;6.38;;;2.17;;
23565;SDS011;22140;48.988;8.544;2022-09-12T19:31:53;7.70;;;2.33;;
23565;SDS011;22140;48.988;8.544;2022-09-12T19:36:56;6.45;;;2.08;;
23565;SDS011;22140;48.988;8.544;2022-09-12T19:41:59;8.60;;;2.58;;
23565;SDS011;22140;48.988;8.544;2022-09-12T19:47:00;7.07;;;2.47;;
23565;SDS011;22140;48.988;8.544;2022-09-12T19:52:02;7.15;;;2.83;;
23565;SDS011;22140;48.988;8.544;2022-09-12T19:57:04;8.93;;;2.80;;
23565;SDS011;22140;48.988;8.544;2022-09-12T20:02:06;6.83;;;2.63;;
23565;SDS011;22140;48.988;8.544;2022-09-12T20:07:07;12.10;;;2.83;;
23565;SDS011;22140;48.988;8.544;2022-09-12T20:12:09;11.32;;;2.90;;
23565;SDS011;22140;48.988;8.544;2022-09-12T20:17:10;7.85;;;2.30;;
23565;SDS011;22140;48.988;8.544;2022-09-12T20:22:12;7.30;;;2.53;;
23565;SDS011;22140;48.988;8.544;2022-09-12T20:27:13;8.48;;;2.65;;
23565;SDS011;22140;48.988;8.544;2022-09-12T20:32:15;9.20;;;2.78;;
23565;SDS011;22140;48.988;8.544;2022-09-12T20:37:18;16.30;;;3.20;;
23565;SDS011;22140;48.988;8.544;2022-09-12T20:42:19;7.00;;;2.53;;
23565;SDS011;22140;48.988;8.544;2022-09-12T20:47:21;7.55;;;2.50;;
23565;SDS011;22140;48.988;8.544;2022-09-12T20:52:22;12.80;;;2.97;;
23565;SDS011;22140;48.988;8.544;2022-09-12T20:57:23;7.07;;;2.53;;
23565;SDS011;22140;48.988;8.544;2022-09-12T21:02:25;7.18;;;2.80;;
23565;SDS011;22140;48.988;8.544;2022-09-12T21:07:26;6.78;;;3.08;;
23565;SDS011;22140;48.988;8.544;2022-09-12T21:12:28;8.67;;;2.50;;
23565;SDS011;22140;48.988;8.544;2022-09-12T21:17:29;8.80;;;2.58;;
23565;SDS011;22140;48.988;8.544;2022-09-12T21:22:30;6.50;;;2.60;;
23565;SDS011;22140;48.988;8.544;2022-09-12T21:27:32;6.37;;;2.70;;
23565;SDS011;22140;48.988;8.544;2022-09-12T21:32:33;8.27;;;3.00;;
23565;SDS011;22140;48.988;8.544;2022-09-12T21:37:35;8.10;;;3.22;;
23565;SDS011;22140;48.988;8.544;2022-09-12T21:42:37;6.57;;;2.47;;
23565;SDS011;22140;48.988;8.544;2022-09-12T21:47:38;9.30;;;2.57;;
23565;SDS011;22140;48.988;8.544;2022-09-12T21:52:40;8.20;;;2.85;;
23565;SDS011;22140;48.988;8.544;2022-09-12T21:57:41;11.43;;;2.75;;
23565;SDS011;22140;48.988;8.544;2022-09-12T22:02:42;6.53;;;2.73;;
23565;SDS011;22140;48.988;8.544;2022-09-12T22:07:44;7.72;;;2.72;;
23565;SDS011;22140;48.988;8.544;2022-09-12T22:12:45;8.60;;;2.70;;
23565;SDS011;22140;48.988;8.544;2022-09-12T22:17:46;10.27;;;3.00;;
23565;SDS011;22140;48.988;8.544;2022-09-12T22:22:48;11.30;;;2.92;;
23565;SDS011;22140;48.988;8.544;2022-09-12T22:28:07;6.88;;;2.72;;
23565;SDS011;22140;48.988;8.544;2022-09-12T22:33:09;7.50;;;2.83;;
23565;SDS011;22140;48.988;8.544;2022-09-12T22:38:10;8.07;;;2.90;;
23565;SDS011;22140;48.988;8.544;2022-09-12T22:43:11;8.10;;;3.22;;
23565;SDS011;22140;48.988;8.544;2022-09-12T22:48:13;9.10;;;3.20;;
23565;SDS011;22140;48.988;8.544;2022-09-12T22:53:14;7.00;;;2.83;;
23565;SDS011;22140;48.988;8.544;2022-09-12T22:58:15;8.30;;;3.08;;
23565;SDS011;22140;48.988;8.544;2022-09-12T23:03:17;8.40;;;2.80;;
23565;SDS011;22140;48.988;8.544;2022-09-12T23:08:18;9.53;;;3.20;;
23565;SDS011;22140;48.988;8.544;2022-09-12T23:31:15;8.03;;;3.07;;
23565;SDS011;22140;48.988;8.544;2022-09-12T23:36:17;10.50;;;3.20;;
23565;SDS011;22140;48.988;8.544;2022-09-12T23:41:18;8.90;;;3.55;;
23565;SDS011;22140;48.988;8.544;2022-09-12T23:46:20;8.20;;;3.07;;
23565;SDS011;22140;48.988;8.544;2022-09-12T23:51:22;7.63;;;3.10;;
23565;SDS011;22140;48.988;8.544;2022-09-12T23:56:23;7.80;;;3.30;;
